Macon, Missouri
Current Conditions -  °F | °C
As of 7:55 AM on Thursday 29 Jan 2015 (Local Time) from KIRK Reporting Station
Overcast Overcast  
Wind Chill: 26°   Ceiling: 1800
Heat Index: 36°   Visibility: 9mi
Dew Point: 33°   Wind: 16mph
Humidity: 89%   Direction: 320°NW
Pressure: 30.1"   Gusts: 25mph
Location:  39.74°N, 92.46°W
Report Text: KIRK 291355Z AUTO 32014G22KT 9SM OVC018 02/01 A3010 RMK AO2 SLP203 T00220006
Loading
Personal Weather Stations






























Interactive Weather Map New forecast layout! Learn more

10-Day Weather Forecast

Advertisements
Track Severe Weather on mobile